createdAt,value
2018-10-16T00:00:53.501Z,10.92
2018-10-16T00:01:53.498Z,10.89
2018-10-16T00:02:53.497Z,10.94
2018-10-16T00:03:53.491Z,10.83
2018-10-16T00:04:53.485Z,10.89
2018-10-16T00:05:53.478Z,10.88
2018-10-16T00:06:53.474Z,11.10
2018-10-16T00:07:53.466Z,11.14
2018-10-16T00:08:53.460Z,11.36
2018-10-16T00:09:53.456Z,11.44
2018-10-16T00:10:53.451Z,11.56
2018-10-16T00:11:54.276Z,11.54
2018-10-16T00:12:53.449Z,11.61
2018-10-16T00:13:53.437Z,11.62
2018-10-16T00:14:53.432Z,11.57
2018-10-16T00:15:53.425Z,11.52
2018-10-16T00:16:53.423Z,11.39
2018-10-16T00:17:53.420Z,11.36
2018-10-16T00:18:53.414Z,11.41
2018-10-16T00:19:53.410Z,11.31
2018-10-16T00:20:53.402Z,11.27
2018-10-16T00:21:53.395Z,11.13
2018-10-16T00:22:53.389Z,11.17
2018-10-16T00:23:53.387Z,11.13
2018-10-16T00:24:53.384Z,11.01
2018-10-16T00:25:53.376Z,11.06
2018-10-16T00:26:53.372Z,10.99
2018-10-16T00:27:53.366Z,11.17
2018-10-16T00:28:53.364Z,11.10
2018-10-16T00:29:53.357Z,11.20
2018-10-16T00:30:53.351Z,11.27
2018-10-16T00:31:53.347Z,11.34
2018-10-16T00:32:53.340Z,11.32
2018-10-16T00:33:53.337Z,11.49
2018-10-16T00:34:53.334Z,11.34
2018-10-16T00:35:53.331Z,11.46
2018-10-16T00:36:53.320Z,11.36
2018-10-16T00:37:53.316Z,11.32
2018-10-16T00:38:53.312Z,11.28
2018-10-16T00:39:53.307Z,11.25
2018-10-16T00:40:53.299Z,11.20
2018-10-16T00:41:53.295Z,11.11
2018-10-16T00:42:53.289Z,11.07
2018-10-16T00:43:53.295Z,10.96
2018-10-16T00:44:53.286Z,11.03
2018-10-16T00:45:53.274Z,10.99
2018-10-16T00:46:53.275Z,11.03
2018-10-16T00:47:53.273Z,10.86
2018-10-16T00:48:53.263Z,10.86
2018-10-16T00:49:53.258Z,10.80
2018-10-16T00:50:53.252Z,10.80
2018-10-16T00:51:53.249Z,10.83
2018-10-16T00:52:53.240Z,10.70
2018-10-16T00:53:53.239Z,10.73
2018-10-16T00:54:53.313Z,10.63
2018-10-16T00:55:53.226Z,10.56
2018-10-16T00:56:53.222Z,10.63
2018-10-16T00:57:53.217Z,10.60
2018-10-16T00:58:53.209Z,10.63
2018-10-16T00:59:53.213Z,10.51
2018-10-16T01:00:53.197Z,10.52
2018-10-16T01:01:53.787Z,10.55
2018-10-16T01:02:53.193Z,10.44
2018-10-16T01:03:53.184Z,10.56
2018-10-16T01:04:53.180Z,10.42
2018-10-16T01:05:53.177Z,10.44
2018-10-16T01:06:53.170Z,10.30
2018-10-16T01:07:53.171Z,10.26
2018-10-16T01:08:53.158Z,10.36
2018-10-16T01:09:53.154Z,10.36
2018-10-16T01:10:53.147Z,10.36
2018-10-16T01:11:53.143Z,10.33
2018-10-16T01:12:53.139Z,10.36
2018-10-16T01:13:53.133Z,10.43
2018-10-16T01:14:53.130Z,10.37
2018-10-16T01:15:53.122Z,10.25
2018-10-16T01:16:53.112Z,10.28
2018-10-16T01:17:53.119Z,10.24
2018-10-16T01:18:53.104Z,10.28
2018-10-16T01:19:53.100Z,10.19
2018-10-16T01:20:53.098Z,10.21
2018-10-16T01:21:53.094Z,10.19
2018-10-16T01:22:53.088Z,10.24
2018-10-16T01:23:53.080Z,10.30
2018-10-16T01:24:53.074Z,10.28
2018-10-16T01:25:53.070Z,10.34
2018-10-16T01:26:53.062Z,10.32
2018-10-16T01:27:53.058Z,10.36
2018-10-16T01:28:53.052Z,10.33
